createdAt,value
2023-04-08T00:00:58.139Z,5.36
2023-04-08T00:06:02.696Z,5.29
2023-04-08T00:11:05.764Z,5.28
2023-04-08T00:16:08.163Z,5.21
2023-04-08T00:21:10.785Z,5.22
2023-04-08T00:26:13.116Z,5.09
2023-04-08T00:31:16.602Z,5.07
2023-04-08T00:36:19.234Z,4.96
2023-04-08T00:41:21.929Z,4.82
2023-04-08T00:46:24.776Z,4.79
2023-04-08T00:51:39.080Z,4.80
2023-04-08T00:56:43.644Z,4.74
2023-04-08T01:02:06.808Z,4.69
2023-04-08T01:07:47.970Z,4.67
2023-04-08T01:12:56.555Z,4.70
2023-04-08T01:18:00.801Z,4.69
2023-04-08T01:23:18.561Z,4.73
2023-04-08T01:28:23.878Z,4.70
2023-04-08T01:33:29.446Z,4.73
2023-04-08T01:38:34.102Z,4.69
2023-04-08T01:43:39.600Z,4.69
2023-04-08T01:48:42.945Z,4.69
2023-04-08T01:53:45.801Z,4.65
2023-04-08T01:58:54.856Z,4.60
2023-04-08T02:04:00.697Z,4.63
2023-04-08T02:09:04.327Z,4.67
2023-04-08T02:14:06.668Z,4.73
2023-04-08T02:19:18.914Z,4.73
2023-04-08T02:24:22.313Z,4.69
2023-04-08T02:29:26.487Z,4.65
2023-04-08T02:34:30.894Z,4.64
2023-04-08T02:39:33.534Z,4.58
2023-04-08T02:44:36.483Z,4.51
2023-04-08T02:49:38.790Z,4.46
2023-04-08T02:54:41.941Z,4.43
2023-04-08T02:59:44.368Z,4.41
2023-04-08T03:04:50.607Z,4.33
2023-04-08T03:09:55.158Z,4.29
2023-04-08T03:14:58.073Z,4.27
2023-04-08T03:20:01.857Z,4.18
2023-04-08T03:25:04.575Z,4.21
2023-04-08T03:30:09.170Z,4.18
2023-04-08T03:35:11.830Z,4.21
2023-04-08T03:40:14.159Z,4.19
2023-04-08T03:45:17.363Z,4.11
2023-04-08T03:50:26.475Z,4.08
2023-04-08T03:55:29.207Z,4.06
2023-04-08T04:00:33.806Z,4.02
2023-04-08T04:05:38.112Z,3.98
2023-04-08T04:10:41.138Z,3.91
2023-04-08T04:15:43.951Z,3.90
2023-04-08T04:20:46.350Z,3.88
2023-04-08T04:25:49.169Z,3.81
2023-04-08T04:30:51.454Z,3.78
2023-04-08T04:35:54.511Z,3.73
2023-04-08T04:40:59.008Z,3.68
2023-04-08T04:46:02.488Z,3.71
2023-04-08T04:51:04.742Z,3.72
2023-04-08T04:56:08.315Z,3.78
2023-04-08T05:01:10.652Z,3.86
2023-04-08T05:06:14.152Z,3.86
2023-04-08T05:11:18.453Z,3.88
2023-04-08T05:16:21.105Z,3.94
2023-04-08T05:21:24.072Z,3.99
2023-04-08T05:26:28.140Z,4.02
2023-04-08T05:31:30.516Z,4.04
2023-04-08T05:36:33.528Z,4.12
2023-04-08T05:41:35.619Z,4.16
2023-04-08T05:46:38.882Z,4.12
2023-04-08T05:51:41.160Z,4.16
2023-04-08T05:56:46.472Z,4.25
2023-04-08T06:01:48.805Z,4.52
2023-04-08T06:06:51.485Z,4.65
2023-04-08T06:11:54.173Z,4.71
2023-04-08T06:16:57.761Z,4.81
2023-04-08T06:22:00.023Z,4.79
2023-04-08T06:27:03.417Z,4.78
2023-04-08T06:32:06.534Z,4.76
2023-04-08T06:37:09.204Z,4.67
2023-04-08T06:42:11.401Z,4.70
2023-04-08T06:47:21.693Z,4.91
2023-04-08T06:52:24.499Z,5.13
2023-04-08T06:57:30.122Z,5.47
2023-04-08T07:02:33.035Z,5.71
2023-04-08T07:07:36.831Z,5.87
2023-04-08T07:12:39.322Z,5.88
2023-04-08T07:17:42.973Z,5.85
2023-04-08T07:22:45.446Z,5.98
2023-04-08T07:27:48.014Z,6.23
2023-04-08T07:32:50.954Z,6.33
2023-04-08T07:37:53.914Z,6.39
2023-04-08T07:42:56.647Z,6.41
2023-04-08T07:47:59.040Z,6.49
2023-04-08T07:53:01.266Z,6.72
2023-04-08T07:58:03.947Z,6.93
2023-04-08T08:03:07.340Z,7.08
2023-04-08T08:08:14.094Z,7.09
2023-04-08T08:13:25.749Z,7.13
2023-04-08T08:18:40.220Z,7.31
2023-04-08T08:23:42.918Z,7.49
2023-04-08T08:28:45.400Z,7.71
2023-04-08T08:33:48.425Z,7.91
2023-04-08T08:38:55.362Z,8.01
2023-04-08T08:43:57.404Z,8.15
2023-04-08T08:49:13.245Z,8.31
2023-04-08T08:54:16.197Z,8.35
2023-04-08T08:59:18.763Z,8.50
2023-04-08T09:04:39.958Z,8.57
2023-04-08T09:09:51.724Z,8.72
2023-04-08T09:15:11.025Z,8.96
2023-04-08T09:20:16.470Z,9.09
2023-04-08T09:25:29.546Z,9.22
2023-04-08T09:30:38.734Z,9.52
2023-04-08T09:35:44.382Z,9.66
2023-04-08T09:41:41.751Z,9.77
2023-04-08T09:47:45.018Z,9.86
2023-04-08T09:53:34.331Z,10.03
2023-04-08T10:38:20.333Z,11.92
2023-04-08T10:43:24.205Z,11.89
2023-04-08T10:48:26.884Z,12.08
2023-04-08T10:53:31.092Z,12.35
2023-04-08T10:58:34.653Z,12.25
2023-04-08T11:03:37.958Z,12.49
2023-04-08T11:08:40.904Z,12.89
2023-04-08T11:13:52.592Z,12.94
2023-04-08T11:18:56.943Z,13.19
2023-04-08T11:23:59.249Z,13.08
2023-04-08T11:29:02.704Z,12.78
2023-04-08T11:34:04.558Z,12.95
2023-04-08T11:39:08.843Z,13.13
2023-04-08T11:44:11.512Z,13.43
2023-04-08T11:49:13.742Z,13.58
2023-04-08T11:54:27.769Z,13.40
2023-04-08T11:59:30.097Z,13.17
2023-04-08T12:04:32.447Z,13.00
2023-04-08T12:09:35.086Z,12.95
2023-04-08T12:14:37.870Z,12.85
2023-04-08T12:19:41.184Z,12.85
2023-04-08T12:24:43.160Z,12.96
2023-04-08T12:29:46.292Z,12.94
2023-04-08T12:34:48.215Z,12.77
2023-04-08T12:39:50.551Z,12.40
2023-04-08T12:44:53.222Z,11.98
2023-04-08T12:49:55.754Z,11.63
2023-04-08T12:54:57.942Z,11.40
2023-04-08T13:00:00.160Z,11.20
2023-04-08T13:05:02.536Z,11.01
2023-04-08T13:10:07.076Z,10.91
2023-04-08T13:15:10.362Z,10.91
2023-04-08T13:20:12.766Z,11.17
2023-04-08T13:25:14.659Z,11.45
2023-04-08T13:30:16.857Z,11.61
2023-04-08T13:35:19.410Z,11.62
2023-04-08T13:40:22.282Z,11.60
2023-04-08T13:45:25.329Z,11.55
2023-04-08T13:50:27.429Z,11.43
2023-04-08T13:55:29.385Z,11.28
2023-04-08T14:00:32.995Z,11.23
2023-04-08T14:05:34.938Z,11.20
2023-04-08T14:10:39.196Z,11.21
2023-04-08T14:15:42.197Z,11.26
2023-04-08T14:20:45.221Z,11.20
2023-04-08T14:25:47.697Z,11.14
2023-04-08T14:30:51.245Z,11.10
2023-04-08T14:35:53.876Z,11.16
2023-04-08T14:40:56.519Z,11.21
2023-04-08T14:45:58.421Z,11.20
2023-04-08T14:51:00.645Z,11.06
2023-04-08T14:56:02.618Z,10.90
2023-04-08T15:01:05.272Z,10.90
2023-04-08T15:06:08.265Z,10.94
2023-04-08T15:11:10.955Z,10.99
2023-04-08T15:16:13.281Z,11.07
2023-04-08T15:21:16.679Z,11.03
2023-04-08T15:26:18.773Z,11.01
2023-04-08T15:31:21.294Z,11.07
2023-04-08T15:36:23.476Z,11.05
2023-04-08T15:41:26.367Z,10.91
2023-04-08T15:46:28.283Z,10.76
2023-04-08T15:51:30.307Z,10.63
2023-04-08T15:56:33.709Z,10.62
2023-04-08T16:01:36.296Z,10.66
2023-04-08T16:06:38.456Z,10.59
2023-04-08T16:11:41.822Z,10.58
2023-04-08T16:16:43.847Z,10.54
2023-04-08T16:21:46.461Z,10.57
2023-04-08T16:26:48.409Z,10.50
2023-04-08T16:31:53.181Z,10.44
2023-04-08T16:36:56.873Z,10.43
2023-04-08T16:42:01.090Z,10.39
2023-04-08T16:47:03.169Z,10.33
2023-04-08T16:52:06.242Z,10.27
2023-04-08T16:57:08.431Z,10.23
2023-04-08T17:02:12.696Z,10.18
2023-04-08T17:07:16.127Z,10.13
2023-04-08T17:12:18.371Z,10.08
2023-04-08T17:17:21.043Z,10.08
2023-04-08T17:22:23.127Z,10.07
2023-04-08T17:27:25.034Z,10.02
2023-04-08T17:32:30.174Z,10.00
2023-04-08T17:37:32.045Z,9.96
2023-04-08T17:42:33.916Z,9.92
2023-04-08T17:47:36.156Z,9.80
2023-04-08T17:52:38.240Z,9.74
2023-04-08T17:57:40.177Z,9.67
2023-04-08T18:02:42.926Z,9.61
2023-04-08T18:07:45.462Z,9.51
2023-04-08T18:12:48.986Z,9.47
2023-04-08T18:17:51.448Z,9.45
2023-04-08T18:22:53.920Z,9.46
2023-04-08T18:27:55.910Z,9.43
2023-04-08T18:32:57.863Z,9.42
2023-04-08T18:37:59.909Z,9.39
2023-04-08T18:43:05.653Z,9.34
2023-04-08T18:48:09.528Z,9.35
2023-04-08T18:53:12.536Z,9.31
2023-04-08T18:58:14.724Z,9.29
2023-04-08T19:03:17.492Z,9.29
2023-04-08T19:08:19.502Z,9.25
2023-04-08T19:13:23.534Z,9.21
2023-04-08T19:18:26.096Z,9.11
2023-04-08T19:23:28.807Z,9.12
2023-04-08T19:28:32.414Z,9.06
2023-04-08T19:33:34.375Z,9.05
2023-04-08T19:38:36.343Z,9.09
2023-04-08T19:43:38.477Z,9.08
2023-04-08T19:48:40.507Z,9.08
2023-04-08T19:53:43.114Z,9.07
2023-04-08T19:58:45.041Z,9.03
2023-04-08T20:03:50.539Z,8.97
2023-04-08T20:08:53.667Z,8.95
2023-04-08T20:13:56.513Z,8.92
2023-04-08T20:18:58.588Z,8.89
2023-04-08T20:24:01.212Z,8.87
2023-04-08T20:29:03.144Z,8.85
2023-04-08T20:34:05.203Z,8.82
2023-04-08T20:39:10.821Z,8.79
2023-04-08T20:44:13.280Z,8.79
2023-04-08T20:49:18.771Z,8.79
2023-04-08T20:54:21.828Z,8.73
2023-04-08T20:59:23.752Z,8.70
2023-04-08T21:04:25.967Z,8.71
2023-04-08T21:09:28.621Z,8.73
2023-04-08T21:14:38.161Z,8.74
2023-04-08T21:19:40.237Z,8.76
2023-04-08T21:24:43.173Z,8.78
2023-04-08T21:29:45.287Z,8.80
2023-04-08T21:34:56.735Z,8.82
2023-04-08T21:39:58.679Z,8.83
2023-04-08T21:45:02.265Z,8.80
2023-04-08T21:50:08.161Z,8.78
2023-04-08T21:55:30.567Z,8.80
2023-04-08T22:00:32.559Z,8.77
2023-04-08T22:05:36.079Z,8.75
2023-04-08T22:10:38.171Z,8.67
2023-04-08T22:15:40.742Z,8.58
2023-04-08T22:20:43.317Z,8.55
2023-04-08T22:25:51.934Z,8.49
2023-04-08T22:30:55.416Z,8.40
2023-04-08T22:35:57.824Z,8.31
2023-04-08T22:41:00.893Z,8.20
2023-04-08T22:46:03.186Z,8.07
2023-04-08T22:51:05.548Z,7.92
2023-04-08T22:56:07.794Z,7.81
2023-04-08T23:01:18.590Z,7.74
2023-04-08T23:06:20.640Z,7.60
2023-04-08T23:11:42.467Z,7.45
2023-04-08T23:16:45.536Z,7.38
2023-04-08T23:21:47.525Z,7.34
2023-04-08T23:26:50.273Z,7.31
2023-04-08T23:31:54.473Z,7.30
2023-04-08T23:36:56.414Z,7.28
2023-04-08T23:41:58.878Z,7.29
2023-04-08T23:47:02.063Z,7.30
2023-04-08T23:52:06.319Z,7.31
2023-04-08T23:57:08.363Z,7.30
